Time;durP1;ratioP1;P1;durP2;ratioP2;P2;SDS_P1;SDS_P2;PMS_P1;PMS_P2;Temp;Humidity;BMP_temperature;BMP_pressure;BME280_temperature;BME280_humidity;BME280_pressure;Samples;Min_cycle;Max_cycle;Signal;HPM_P1;HPM_P2
2021/01/21 00:02:21;;;;;;;6.13;2.20;;;11.60;99.90;;;;;;5089519;28;20465;-76
2021/01/21 00:04:47;;;;;;;2.40;1.93;;;11.60;99.90;;;;;;5085334;28;20542;-76
2021/01/21 00:07:13;;;;;;;2.67;1.83;;;11.50;99.90;;;;;;5083105;28;20466;-76
2021/01/21 00:09:39;;;;;;;6.30;2.10;;;11.50;99.90;;;;;;5084753;28;20455;-76
2021/01/21 00:12:07;;;;;;;2.27;1.80;;;11.60;99.90;;;;;;5090821;28;20478;-76
2021/01/21 00:14:34;;;;;;;5.20;2.10;;;11.50;99.90;;;;;;5086794;28;21201;-76
2021/01/21 00:17:00;;;;;;;2.50;1.63;;;11.50;99.90;;;;;;5083649;28;20659;-76
2021/01/21 00:19:27;;;;;;;2.80;1.70;;;11.50;99.90;;;;;;5079680;28;20858;-76
2021/01/21 00:21:53;;;;;;;5.03;1.73;;;11.50;99.90;;;;;;5085353;28;20574;-76
2021/01/21 00:24:20;;;;;;;5.27;2.30;;;11.50;99.90;;;;;;5087587;28;20804;-76
2021/01/21 00:26:47;;;;;;;3.60;2.00;;;11.50;99.90;;;;;;5083030;28;20976;-76
2021/01/21 00:29:13;;;;;;;2.13;1.87;;;11.50;99.90;;;;;;5087754;28;20542;-76
2021/01/21 00:31:39;;;;;;;3.10;1.80;;;11.50;99.90;;;;;;5090292;28;20999;-76
2021/01/21 00:34:06;;;;;;;7.87;2.20;;;11.60;99.90;;;;;;5084951;28;20454;-76
2021/01/21 00:36:33;;;;;;;2.60;1.60;;;11.50;99.90;;;;;;5083116;28;20458;-76
2021/01/21 00:38:59;;;;;;;1.80;1.70;;;11.50;99.90;;;;;;5085063;28;20542;-76
2021/01/21 00:41:26;;;;;;;2.17;1.70;;;11.50;99.90;;;;;;5083595;28;20458;-76
2021/01/21 00:43:52;;;;;;;2.60;2.10;;;11.50;99.90;;;;;;5084563;28;20474;-76
2021/01/21 00:46:19;;;;;;;2.93;1.90;;;11.50;99.90;;;;;;5082749;28;20501;-76
2021/01/21 00:48:45;;;;;;;7.73;2.10;;;11.60;99.90;;;;;;5091552;28;20474;-76
2021/01/21 00:51:12;;;;;;;2.33;1.80;;;11.60;99.90;;;;;;5083066;28;20456;-76
2021/01/21 00:53:39;;;;;;;2.30;1.50;;;11.60;99.90;;;;;;5086430;28;20457;-76
2021/01/21 00:56:06;;;;;;;3.30;1.83;;;11.60;99.90;;;;;;5085127;28;20475;-76
2021/01/21 00:58:32;;;;;;;1.90;1.60;;;11.60;99.90;;;;;;5082350;28;20493;-76
2021/01/21 01:00:59;;;;;;;2.37;2.00;;;11.60;99.90;;;;;;5090764;28;20512;-76
2021/01/21 01:03:25;;;;;;;4.17;1.90;;;11.60;99.90;;;;;;5080237;28;20509;-76
2021/01/21 01:05:52;;;;;;;2.70;2.00;;;11.60;99.90;;;;;;5079372;28;20536;-76
2021/01/21 01:08:18;;;;;;;2.33;1.47;;;11.60;99.90;;;;;;5086165;28;20454;-76
2021/01/21 01:10:45;;;;;;;3.43;2.30;;;11.70;99.90;;;;;;5078622;28;20833;-76
2021/01/21 01:13:11;;;;;;;2.90;1.83;;;11.70;99.90;;;;;;5083606;28;20454;-76
2021/01/21 01:15:38;;;;;;;1.90;1.67;;;11.70;99.90;;;;;;5085219;28;20462;-76
2021/01/21 01:18:04;;;;;;;4.87;1.90;;;11.70;99.90;;;;;;5081084;28;20464;-76
2021/01/21 01:20:30;;;;;;;1.97;1.77;;;11.70;99.90;;;;;;5080800;28;20485;-76
2021/01/21 01:22:57;;;;;;;4.40;1.43;;;11.70;99.90;;;;;;5084267;28;20478;-76
2021/01/21 01:25:24;;;;;;;2.30;1.73;;;11.70;99.90;;;;;;5078179;28;20462;-76
2021/01/21 01:27:51;;;;;;;3.33;1.80;;;11.70;99.90;;;;;;5080751;28;20470;-76
2021/01/21 01:30:19;;;;;;;3.40;1.93;;;11.70;99.90;;;;;;5090294;28;20463;-76
2021/01/21 01:32:47;;;;;;;3.63;1.90;;;11.70;99.90;;;;;;5081066;28;20863;-76
2021/01/21 01:35:15;;;;;;;5.40;2.33;;;11.70;99.90;;;;;;5077896;28;20488;-76
2021/01/21 01:37:42;;;;;;;3.10;2.27;;;11.70;99.90;;;;;;5083860;28;20462;-76
2021/01/21 01:40:10;;;;;;;5.03;1.60;;;11.70;99.90;;;;;;5082719;28;20486;-76
2021/01/21 01:42:36;;;;;;;4.87;1.70;;;11.70;99.90;;;;;;5080727;28;20858;-76
2021/01/21 01:45:04;;;;;;;4.87;1.80;;;11.70;99.90;;;;;;5086244;28;20466;-76
2021/01/21 01:47:31;;;;;;;1.70;1.60;;;11.70;99.90;;;;;;5081602;28;20748;-76
2021/01/21 01:49:58;;;;;;;6.93;1.60;;;11.70;99.90;;;;;;5078982;28;20455;-76
2021/01/21 01:52:26;;;;;;;2.73;1.70;;;11.70;99.90;;;;;;5084748;28;20458;-76
2021/01/21 01:54:54;;;;;;;2.50;1.73;;;11.80;99.90;;;;;;5083484;28;20465;-76
2021/01/21 01:57:21;;;;;;;1.70;1.60;;;11.80;99.90;;;;;;5083363;28;20460;-76
2021/01/21 01:59:49;;;;;;;1.50;1.40;;;11.80;99.90;;;;;;5088188;28;20501;-76
2021/01/21 02:02:16;;;;;;;3.00;1.67;;;11.80;99.90;;;;;;5083227;28;20467;-76
2021/01/21 02:04:42;;;;;;;4.20;1.80;;;11.80;99.90;;;;;;5080147;28;20461;-76
2021/01/21 02:07:09;;;;;;;4.23;1.80;;;11.80;99.90;;;;;;5077697;28;20473;-76
2021/01/21 02:09:35;;;;;;;2.60;1.70;;;11.80;99.90;;;;;;5082253;28;20470;-76
2021/01/21 02:12:13;;;;;;;3.00;1.43;;;11.90;99.90;;;;;;5082679;28;20988;-76
2021/01/21 02:14:50;;;;;;;2.93;1.40;;;11.90;99.90;;;;;;5082130;28;20458;-76
2021/01/21 02:17:24;;;;;;;3.60;1.93;;;11.90;99.90;;;;;;5077574;28;20463;-76
2021/01/21 02:20:26;;;;;;;1.60;1.50;;;11.90;99.90;;;;;;5081012;28;20484;-76
2021/01/21 02:23:26;;;;;;;2.13;1.70;;;11.90;99.90;;;;;;5079109;28;20466;-76
2021/01/21 02:25:56;;;;;;;3.40;1.80;;;11.90;99.90;;;;;;5075292;28;20498;-76
2021/01/21 02:29:02;;;;;;;7.10;1.87;;;11.90;99.90;;;;;;5084428;28;20458;-76
2021/01/21 02:31:41;;;;;;;3.47;1.70;;;11.90;99.90;;;;;;5081182;28;20466;-76
2021/01/21 02:34:13;;;;;;;3.00;1.57;;;11.90;99.90;;;;;;5081583;28;20598;-76
2021/01/21 02:36:41;;;;;;;6.23;1.50;;;12.00;99.90;;;;;;5085345;28;20568;-76
2021/01/21 02:39:10;;;;;;;2.03;1.50;;;12.00;99.90;;;;;;5084796;28;20483;-76
2021/01/21 02:41:38;;;;;;;4.20;1.30;;;12.00;99.90;;;;;;5081841;28;20459;-75
2021/01/21 02:44:04;;;;;;;7.70;1.93;;;12.00;99.90;;;;;;5077623;28;20457;-76
2021/01/21 02:46:31;;;;;;;4.87;1.90;;;12.10;99.90;;;;;;5081489;28;20476;-76
2021/01/21 02:48:58;;;;;;;3.10;1.60;;;12.10;99.90;;;;;;5081047;28;20521;-76
2021/01/21 02:51:33;;;;;;;2.30;1.40;;;12.10;99.90;;;;;;5081309;28;20823;-76
2021/01/21 02:54:11;;;;;;;6.73;1.70;;;12.10;99.90;;;;;;5079121;28;20465;-76
2021/01/21 02:56:40;;;;;;;2.17;1.63;;;12.20;99.90;;;;;;5081214;28;20463;-76
2021/01/21 02:59:09;;;;;;;5.40;1.77;;;12.20;99.90;;;;;;5081180;28;20856;-76
2021/01/21 03:01:37;;;;;;;2.00;1.27;;;12.20;99.90;;;;;;5078603;28;20463;-76
2021/01/21 03:04:04;;;;;;;2.23;1.20;;;12.20;99.90;;;;;;5084386;28;20465;-76
2021/01/21 03:06:34;;;;;;;3.00;1.30;;;12.20;99.90;;;;;;5084976;28;20795;-76
2021/01/21 03:09:01;;;;;;;4.10;1.50;;;12.20;99.90;;;;;;5080565;28;20456;-76
2021/01/21 03:11:28;;;;;;;2.40;1.60;;;12.30;99.90;;;;;;5079936;28;20455;-76
2021/01/21 03:13:54;;;;;;;2.90;1.20;;;12.20;99.90;;;;;;5084673;28;20848;-76
2021/01/21 03:16:21;;;;;;;2.37;1.93;;;12.30;99.90;;;;;;5084584;28;20459;-76
2021/01/21 03:18:50;;;;;;;1.70;1.27;;;12.30;99.90;;;;;;5082764;28;20480;-76
2021/01/21 03:21:17;;;;;;;3.80;1.50;;;12.30;99.90;;;;;;5077912;28;20998;-76
2021/01/21 03:23:45;;;;;;;1.23;1.13;;;12.30;99.90;;;;;;5083687;28;20461;-76
2021/01/21 03:26:11;;;;;;;1.20;1.10;;;12.20;99.90;;;;;;5081677;28;20464;-76
2021/01/21 03:28:38;;;;;;;1.60;1.40;;;12.20;99.90;;;;;;5083482;28;20459;-76
2021/01/21 03:31:04;;;;;;;1.97;1.37;;;12.20;99.90;;;;;;5084350;28;20491;-76
2021/01/21 03:33:31;;;;;;;1.93;1.73;;;12.30;99.90;;;;;;5083565;28;20552;-76
2021/01/21 03:35:57;;;;;;;2.03;1.20;;;12.20;99.90;;;;;;5076944;28;20460;-75
2021/01/21 03:38:24;;;;;;;2.93;1.60;;;12.20;99.90;;;;;;5081042;28;20459;-76
2021/01/21 03:40:51;;;;;;;2.53;1.20;;;12.30;99.90;;;;;;5077952;28;20486;-76
2021/01/21 03:43:17;;;;;;;1.57;1.40;;;12.30;99.90;;;;;;5080361;28;21025;-76
2021/01/21 03:45:43;;;;;;;2.80;1.70;;;12.30;99.90;;;;;;5081265;28;21078;-76
2021/01/21 03:48:10;;;;;;;6.60;1.50;;;12.30;99.90;;;;;;5080225;28;20467;-76
2021/01/21 03:50:36;;;;;;;1.77;1.10;;;12.30;99.90;;;;;;5077242;28;20469;-75
2021/01/21 03:53:03;;;;;;;1.53;1.30;;;12.30;99.90;;;;;;5084350;28;20582;-76
2021/01/21 03:55:29;;;;;;;1.67;1.00;;;12.30;99.90;;;;;;5070506;28;20808;-76
2021/01/21 03:57:56;;;;;;;2.60;1.13;;;12.30;99.90;;;;;;5082683;28;20456;-76
2021/01/21 04:00:23;;;;;;;2.27;1.20;;;12.30;99.90;;;;;;5081715;28;20548;-76
2021/01/21 04:02:49;;;;;;;1.53;1.17;;;12.30;99.90;;;;;;5079318;28;20462;-76
2021/01/21 04:05:15;;;;;;;1.10;1.00;;;12.30;99.90;;;;;;5075659;28;20458;-76
2021/01/21 04:07:41;;;;;;;3.47;1.00;;;12.30;99.90;;;;;;5082614;28;20465;-76
2021/01/21 04:10:09;;;;;;;1.40;1.30;;;12.30;99.90;;;;;;5082533;28;20470;-75
2021/01/21 04:12:35;;;;;;;1.97;1.03;;;12.30;99.90;;;;;;5084701;28;20488;-76
2021/01/21 04:15:03;;;;;;;1.20;1.10;;;12.30;99.90;;;;;;5082220;28;20509;-76
2021/01/21 04:17:29;;;;;;;2.03;1.20;;;12.30;99.90;;;;;;5072837;28;20822;-76
2021/01/21 04:19:55;;;;;;;1.60;1.20;;;12.30;99.90;;;;;;5080633;28;20775;-76
2021/01/21 04:22:21;;;;;;;1.43;1.03;;;12.30;99.90;;;;;;5081386;28;20485;-76
2021/01/21 04:24:48;;;;;;;2.73;1.50;;;12.20;99.90;;;;;;5081203;28;20559;-76
2021/01/21 04:27:14;;;;;;;1.83;1.20;;;12.20;99.90;;;;;;5076308;28;20470;-76
2021/01/21 04:29:40;;;;;;;1.70;1.10;;;12.20;99.90;;;;;;5082498;28;20455;-76
2021/01/21 04:32:07;;;;;;;1.30;1.00;;;12.20;99.90;;;;;;5081678;28;20460;-76
2021/01/21 04:34:34;;;;;;;1.00;0.90;;;12.20;99.90;;;;;;5078210;28;20463;-76
2021/01/21 04:37:00;;;;;;;5.23;1.50;;;12.30;99.90;;;;;;5078880;28;20462;-76
2021/01/21 04:39:26;;;;;;;1.00;0.90;;;12.30;99.90;;;;;;5082297;28;20487;-76
2021/01/21 04:41:52;;;;;;;1.73;1.37;;;12.30;99.90;;;;;;5081174;28;20467;-76
2021/01/21 04:44:19;;;;;;;1.40;1.00;;;12.20;99.90;;;;;;5082885;28;20481;-76
2021/01/21 04:46:46;;;;;;;1.77;1.20;;;12.30;99.90;;;;;;5084323;28;20549;-76
2021/01/21 04:49:15;;;;;;;1.40;1.10;;;12.30;99.90;;;;;;5083705;28;20970;-76
2021/01/21 04:51:43;;;;;;;2.90;1.87;;;12.30;99.90;;;;;;5082064;28;20450;-76
2021/01/21 04:54:11;;;;;;;1.77;1.00;;;12.30;99.90;;;;;;5085447;28;20462;-76
2021/01/21 04:56:40;;;;;;;1.43;1.00;;;12.30;99.90;;;;;;5080128;28;20833;-76
2021/01/21 04:59:12;;;;;;;1.27;1.00;;;12.30;99.90;;;;;;5082356;28;20525;-75
2021/01/21 05:01:39;;;;;;;1.90;1.63;;;12.20;99.90;;;;;;5085514;28;20458;-76
2021/01/21 05:04:06;;;;;;;1.67;0.97;;;12.20;99.90;;;;;;5086356;28;20458;-78
2021/01/21 05:06:35;;;;;;;2.50;1.10;;;12.20;99.90;;;;;;5078434;28;21299;-76
2021/01/21 05:09:02;;;;;;;1.30;1.00;;;12.10;99.90;;;;;;5082916;28;20454;-75
2021/01/21 05:11:28;;;;;;;2.07;0.90;;;11.80;99.90;;;;;;5082701;28;20545;-76
2021/01/21 05:13:55;;;;;;;4.40;1.20;;;11.60;99.90;;;;;;5080440;28;20470;-76
2021/01/21 05:16:22;;;;;;;3.87;1.20;;;11.40;99.90;;;;;;5077014;28;20463;-75
2021/01/21 05:18:49;;;;;;;1.10;0.80;;;11.20;99.90;;;;;;5081488;28;20486;-76
2021/01/21 05:21:17;;;;;;;1.02;0.90;;;11.00;99.90;;;;;;5087479;28;20530;-75
2021/01/21 05:23:45;;;;;;;2.83;2.13;;;10.70;99.90;;;;;;5083111;28;20368;-76
2021/01/21 05:26:12;;;;;;;4.22;1.02;;;10.60;99.90;;;;;;5083498;28;20256;-76
2021/01/21 05:28:39;;;;;;;2.13;0.80;;;10.40;99.90;;;;;;5079594;28;20283;-76
2021/01/21 05:31:07;;;;;;;2.60;1.30;;;10.30;99.90;;;;;;5084986;28;20193;-76
2021/01/21 05:33:35;;;;;;;1.10;1.00;;;10.10;99.90;;;;;;5084716;28;20195;-75
2021/01/21 05:36:05;;;;;;;2.13;0.90;;;10.00;99.90;;;;;;5084728;28;20200;-76
2021/01/21 05:38:31;;;;;;;2.60;1.20;;;9.80;99.90;;;;;;5081920;28;20202;-76
2021/01/21 05:40:59;;;;;;;2.13;1.13;;;9.70;99.90;;;;;;5082157;28;20549;-75
2021/01/21 05:43:27;;;;;;;1.75;1.50;;;9.60;99.90;;;;;;5074649;28;20206;-75
2021/01/21 05:45:53;;;;;;;1.42;1.33;;;9.40;99.90;;;;;;5085560;28;20207;-76
2021/01/21 05:48:20;;;;;;;1.30;1.20;;;9.30;99.90;;;;;;5083410;28;20214;-76
2021/01/21 05:50:47;;;;;;;2.40;1.75;;;9.20;99.90;;;;;;5080130;28;20198;-76
2021/01/21 05:53:13;;;;;;;1.55;1.15;;;9.10;99.90;;;;;;5083351;28;20200;-75
2021/01/21 05:55:40;;;;;;;1.95;1.25;;;9.00;99.90;;;;;;5084163;28;20430;-75
2021/01/21 05:58:10;;;;;;;2.55;1.40;;;8.90;99.90;;;;;;5087491;28;20286;-76
2021/01/21 06:00:39;;;;;;;3.13;1.73;;;8.80;99.90;;;;;;5083122;28;20238;-76
2021/01/21 06:03:08;;;;;;;3.08;1.20;;;8.80;99.90;;;;;;5079418;28;20214;-76
2021/01/21 06:05:35;;;;;;;1.23;1.13;;;8.70;99.90;;;;;;5083003;28;20221;-76
2021/01/21 06:08:03;;;;;;;1.40;1.30;;;8.60;99.90;;;;;;5082451;28;20189;-76
2021/01/21 06:10:32;;;;;;;8.07;1.60;;;8.60;99.90;;;;;;5082494;28;20197;-75
2021/01/21 06:13:04;;;;;;;2.75;1.35;;;8.50;99.90;;;;;;5085812;28;20662;-76
2021/01/21 06:15:33;;;;;;;4.03;1.58;;;8.50;99.90;;;;;;5080943;28;20201;-76
2021/01/21 06:17:59;;;;;;;5.95;1.65;;;8.40;99.90;;;;;;5082004;28;20209;-76
2021/01/21 06:20:25;;;;;;;1.73;1.20;;;8.40;99.90;;;;;;5082927;28;20235;-76
2021/01/21 06:22:56;;;;;;;2.67;1.23;;;8.30;99.90;;;;;;5083772;28;20694;-75
2021/01/21 06:25:24;;;;;;;2.10;1.15;;;8.30;99.90;;;;;;5083391;28;20202;-76
2021/01/21 06:27:52;;;;;;;4.93;1.30;;;8.20;99.90;;;;;;5079995;28;20259;-76
2021/01/21 06:30:20;;;;;;;2.08;1.20;;;8.20;99.90;;;;;;5083574;28;20289;-76
2021/01/21 06:33:01;;;;;;;6.03;1.88;;;8.10;99.90;;;;;;5084984;28;20204;-75
2021/01/21 06:35:33;;;;;;;3.30;1.45;;;8.00;99.90;;;;;;5080491;28;20224;-75
2021/01/21 06:38:05;;;;;;;2.53;1.10;;;8.00;99.90;;;;;;5085683;28;20299;-76
2021/01/21 06:40:34;;;;;;;2.33;1.40;;;8.00;99.90;;;;;;5083903;28;20703;-76
2021/01/21 06:43:05;;;;;;;2.28;1.90;;;8.00;99.90;;;;;;5081914;28;20668;-76
2021/01/21 06:45:33;;;;;;;2.75;1.70;;;7.90;99.90;;;;;;5076726;28;20198;-76
2021/01/21 06:48:01;;;;;;;1.75;1.40;;;7.90;99.90;;;;;;5081040;28;20204;-76
2021/01/21 06:50:29;;;;;;;3.83;1.30;;;7.90;99.90;;;;;;5076558;28;20202;-76
2021/01/21 06:53:00;;;;;;;2.10;1.33;;;7.90;99.90;;;;;;5082763;28;20535;-76
2021/01/21 06:55:28;;;;;;;1.95;1.70;;;7.90;99.90;;;;;;5081548;28;20591;-77
2021/01/21 06:57:54;;;;;;;2.67;1.30;;;7.90;99.90;;;;;;5082154;28;20197;-76
2021/01/21 07:00:40;;;;;;;4.10;1.98;;;7.90;99.90;;;;;;5084086;28;20233;-76
2021/01/21 07:03:08;;;;;;;2.38;1.60;;;7.90;99.90;;;;;;5080846;28;20204;-76
2021/01/21 07:05:35;;;;;;;1.83;1.25;;;7.80;99.90;;;;;;5078761;28;20964;-76
2021/01/21 07:08:06;;;;;;;2.35;1.08;;;7.90;99.90;;;;;;5080355;28;20685;-76
2021/01/21 07:10:45;;;;;;;2.20;1.27;;;7.90;99.90;;;;;;5082391;28;20235;-75
2021/01/21 07:13:14;;;;;;;5.07;1.83;;;7.80;99.90;;;;;;5079629;28;20210;-75
2021/01/21 07:15:43;;;;;;;4.20;1.65;;;7.80;99.90;;;;;;5083308;28;20257;-76
2021/01/21 07:18:16;;;;;;;2.97;1.40;;;7.80;99.90;;;;;;5082204;28;20193;-75
2021/01/21 07:21:08;;;;;;;2.05;1.55;;;7.80;99.90;;;;;;5084532;28;20230;-76
2021/01/21 07:23:42;;;;;;;1.73;1.15;;;7.90;99.90;;;;;;5075689;28;21033;-75
2021/01/21 07:26:28;;;;;;;3.58;1.42;;;7.80;99.90;;;;;;5079023;28;20228;-76
2021/01/21 07:29:10;;;;;;;2.70;1.58;;;7.90;99.90;;;;;;5080694;28;20597;-76
2021/01/21 07:32:05;;;;;;;2.92;1.02;;;7.80;99.90;;;;;;5080355;28;20284;-75
2021/01/21 07:34:43;;;;;;;1.63;1.10;;;7.80;99.90;;;;;;5081805;28;20199;-76
2021/01/21 07:37:22;;;;;;;8.52;1.50;;;7.80;99.90;;;;;;5081286;28;20200;-75
2021/01/21 07:40:15;;;;;;;2.45;1.30;;;7.80;99.90;;;;;;5073158;28;20733;-76
2021/01/21 07:42:49;;;;;;;6.22;1.65;;;7.80;99.90;;;;;;5029836;28;20207;-76
2021/01/21 07:45:29;;;;;;;1.90;1.52;;;7.80;99.90;;;;;;5077462;28;20201;-76
2021/01/21 07:47:58;;;;;;;5.68;1.92;;;7.70;99.90;;;;;;5074332;28;20201;-76
2021/01/21 07:50:35;;;;;;;1.52;1.30;;;7.70;99.90;;;;;;5078190;28;20196;-76
2021/01/21 07:53:18;;;;;;;3.00;1.60;;;7.60;99.90;;;;;;5078171;28;20296;-75
2021/01/21 07:55:46;;;;;;;6.78;2.95;;;7.60;99.90;;;;;;5079769;28;20189;-76
2021/01/21 07:58:20;;;;;;;4.22;1.60;;;7.60;99.90;;;;;;5079746;28;20200;-75
2021/01/21 08:00:47;;;;;;;4.80;2.30;;;7.60;99.90;;;;;;5077218;28;20239;-76
2021/01/21 08:03:14;;;;;;;2.75;1.10;;;7.60;99.90;;;;;;5078314;28;20215;-75
2021/01/21 08:05:42;;;;;;;1.75;1.40;;;7.60;99.90;;;;;;5078597;28;20196;-76
2021/01/21 08:08:08;;;;;;;1.65;1.42;;;7.60;99.90;;;;;;5070404;28;20185;-76
2021/01/21 08:10:36;;;;;;;2.90;1.45;;;7.50;99.90;;;;;;5073523;28;20201;-76
2021/01/21 08:13:05;;;;;;;2.92;1.60;;;7.60;99.90;;;;;;5079508;28;20212;-76
2021/01/21 08:15:33;;;;;;;5.78;1.80;;;7.50;99.90;;;;;;5080777;28;20200;-76
2021/01/21 08:18:00;;;;;;;3.45;2.38;;;7.60;99.90;;;;;;5083272;28;20221;-76
2021/01/21 08:20:27;;;;;;;3.25;1.73;;;7.50;99.90;;;;;;5079249;28;20257;-77
2021/01/21 08:22:57;;;;;;;1.85;1.33;;;7.60;99.90;;;;;;5086226;28;20205;-76
2021/01/21 08:25:25;;;;;;;3.75;1.63;;;7.50;99.90;;;;;;5083922;28;20196;-76
2021/01/21 08:27:52;;;;;;;4.35;2.00;;;7.50;99.90;;;;;;5084047;28;20203;-77
2021/01/21 08:30:22;;;;;;;7.18;1.80;;;7.50;99.90;;;;;;5084388;28;20724;-76
2021/01/21 08:32:58;;;;;;;2.30;2.03;;;7.50;99.90;;;;;;5083942;28;20199;-76
2021/01/21 08:35:27;;;;;;;2.45;1.70;;;7.50;99.90;;;;;;5083837;28;20246;-76
2021/01/21 08:37:56;;;;;;;3.95;2.30;;;7.50;99.90;;;;;;5079313;28;20200;-76
2021/01/21 08:40:24;;;;;;;2.83;1.80;;;7.50;99.90;;;;;;5082516;28;20213;-76
2021/01/21 08:42:52;;;;;;;1.88;1.75;;;7.50;99.90;;;;;;5076679;28;20193;-76
2021/01/21 08:45:19;;;;;;;5.50;1.83;;;7.50;99.90;;;;;;5078673;28;20215;-75
2021/01/21 08:47:47;;;;;;;1.92;1.50;;;7.50;99.90;;;;;;5081314;28;20201;-76
2021/01/21 08:50:17;;;;;;;3.47;2.38;;;7.50;99.90;;;;;;5080825;28;20254;-76
2021/01/21 08:53:01;;;;;;;5.80;2.55;;;7.50;99.90;;;;;;5080317;28;20204;-76
2021/01/21 08:55:42;;;;;;;2.20;1.55;;;7.60;99.90;;;;;;5073892;28;20238;-76
2021/01/21 08:58:10;;;;;;;5.53;1.75;;;7.60;99.90;;;;;;5077742;28;20221;-76
2021/01/21 09:00:38;;;;;;;5.57;2.10;;;7.50;99.90;;;;;;5084697;28;20297;-75
2021/01/21 09:03:05;;;;;;;3.95;2.13;;;7.50;99.90;;;;;;5081739;28;20655;-77
2021/01/21 09:05:32;;;;;;;4.05;2.00;;;7.50;99.90;;;;;;5077843;28;20200;-76
2021/01/21 09:08:07;;;;;;;4.13;1.42;;;7.50;99.90;;;;;;5078285;28;20193;-76
2021/01/21 09:10:43;;;;;;;3.80;1.52;;;7.50;99.90;;;;;;5076990;28;20192;-76
2021/01/21 09:13:09;;;;;;;3.60;2.08;;;7.50;99.90;;;;;;5077523;28;20201;-77
2021/01/21 09:15:55;;;;;;;5.93;1.80;;;7.50;99.90;;;;;;5083658;28;20211;-76
2021/01/21 09:18:23;;;;;;;4.32;1.40;;;7.50;99.90;;;;;;5079193;28;20295;-76
2021/01/21 09:20:50;;;;;;;2.10;1.38;;;7.50;99.90;;;;;;5076687;28;20233;-76
2021/01/21 09:23:20;;;;;;;4.47;2.75;;;7.50;99.90;;;;;;5076137;28;20562;-76
2021/01/21 09:25:47;;;;;;;1.95;1.48;;;7.60;99.90;;;;;;5080894;28;20200;-76
2021/01/21 09:28:14;;;;;;;5.95;1.65;;;7.60;99.90;;;;;;5076897;28;20199;-76
2021/01/21 09:30:42;;;;;;;3.67;3.10;;;7.60;99.90;;;;;;5082025;28;20211;-77
2021/01/21 09:33:08;;;;;;;5.65;1.73;;;7.60;99.90;;;;;;5081928;28;20201;-76
2021/01/21 09:35:37;;;;;;;4.88;1.40;;;7.60;99.90;;;;;;5076405;28;20263;-76
2021/01/21 09:38:04;;;;;;;6.35;2.55;;;7.70;99.90;;;;;;5078306;28;20197;-75
2021/01/21 09:40:32;;;;;;;1.90;1.70;;;7.70;99.90;;;;;;5081150;28;20225;-75
2021/01/21 09:43:01;;;;;;;4.57;1.88;;;7.70;99.90;;;;;;5079431;28;20547;-75
2021/01/21 09:45:28;;;;;;;3.47;1.65;;;7.70;99.90;;;;;;5080009;28;20617;-75
2021/01/21 09:47:55;;;;;;;3.85;1.42;;;7.70;99.90;;;;;;5084634;28;20686;-76
2021/01/21 09:50:24;;;;;;;2.72;1.35;;;7.70;99.90;;;;;;5083689;28;20265;-74
2021/01/21 09:52:50;;;;;;;10.55;1.77;;;7.80;99.90;;;;;;5084530;28;20271;-76
2021/01/21 09:55:17;;;;;;;5.78;1.50;;;7.80;99.90;;;;;;5080288;28;20674;-76
2021/01/21 09:57:45;;;;;;;4.22;1.30;;;7.90;99.90;;;;;;5084273;28;20288;-76
2021/01/21 10:00:13;;;;;;;8.88;1.88;;;8.00;99.90;;;;;;5081507;28;20326;-76
2021/01/21 10:02:39;;;;;;;6.60;3.15;;;8.00;99.90;;;;;;5084037;28;20198;-77
2021/01/21 10:05:06;;;;;;;3.65;2.30;;;8.00;99.90;;;;;;5075467;28;20192;-76
2021/01/21 10:07:33;;;;;;;1.52;1.42;;;8.00;99.90;;;;;;5081133;28;20194;-76
2021/01/21 10:09:59;;;;;;;2.33;1.50;;;8.00;99.90;;;;;;5078962;28;20892;-76
2021/01/21 10:12:26;;;;;;;8.68;1.40;;;8.10;99.90;;;;;;5081453;28;20204;-76
2021/01/21 10:14:56;;;;;;;2.88;1.70;;;8.10;99.90;;;;;;5079008;28;20201;-77
2021/01/21 10:17:23;;;;;;;2.00;1.30;;;8.10;99.90;;;;;;5076796;28;20196;-76
2021/01/21 10:19:49;;;;;;;5.70;1.60;;;8.10;99.90;;;;;;5075781;28;20309;-76
2021/01/21 10:22:15;;;;;;;5.50;1.90;;;8.10;99.90;;;;;;5079130;28;20654;-76
2021/01/21 10:24:44;;;;;;;3.38;2.15;;;8.10;99.90;;;;;;5080327;28;20204;-76
2021/01/21 10:27:11;;;;;;;2.67;1.83;;;8.10;99.90;;;;;;5077156;28;20302;-76
2021/01/21 10:29:37;;;;;;;2.10;1.90;;;8.20;99.90;;;;;;5082066;28;20209;-76
2021/01/21 10:32:05;;;;;;;3.45;2.30;;;8.20;99.90;;;;;;5087381;28;20190;-76
2021/01/21 10:34:31;;;;;;;2.42;2.08;;;8.10;99.90;;;;;;5082548;28;20280;-76
2021/01/21 10:36:58;;;;;;;1.85;1.60;;;8.10;99.90;;;;;;5081512;28;20197;-76
2021/01/21 10:39:24;;;;;;;6.35;1.60;;;8.20;99.90;;;;;;5075304;28;20229;-76
2021/01/21 10:41:52;;;;;;;3.85;1.75;;;8.20;99.90;;;;;;5083835;28;20548;-76
2021/01/21 10:44:19;;;;;;;4.32;1.50;;;8.20;99.90;;;;;;5078006;28;20599;-76
2021/01/21 10:46:45;;;;;;;5.30;2.22;;;8.20;99.90;;;;;;5076885;28;20193;-76
2021/01/21 10:49:14;;;;;;;9.15;2.08;;;8.30;99.90;;;;;;5073713;28;20670;-76
2021/01/21 10:51:46;;;;;;;3.83;1.75;;;8.30;99.90;;;;;;5076852;28;20576;-76
2021/01/21 10:54:15;;;;;;;3.63;1.80;;;8.30;99.90;;;;;;5079578;28;20201;-77
2021/01/21 10:56:41;;;;;;;6.03;2.00;;;8.30;99.90;;;;;;5076791;28;20237;-76
2021/01/21 10:59:08;;;;;;;2.80;1.90;;;8.40;99.90;;;;;;5076094;28;20194;-76
2021/01/21 11:01:35;;;;;;;6.95;3.42;;;8.40;99.90;;;;;;5082357;28;20217;-78
2021/01/21 11:04:04;;;;;;;5.78;4.10;;;8.50;99.90;;;;;;5079594;28;20194;-77
2021/01/21 11:06:31;;;;;;;3.42;2.10;;;8.60;99.90;;;;;;5076919;28;20199;-77
2021/01/21 11:08:57;;;;;;;7.97;1.98;;;8.60;99.90;;;;;;5081534;28;20209;-77
2021/01/21 11:11:23;;;;;;;3.05;2.20;;;8.70;99.90;;;;;;5077720;28;20195;-76
2021/01/21 11:13:52;;;;;;;5.13;1.40;;;8.70;99.90;;;;;;5080951;28;20221;-77
2021/01/21 11:16:18;;;;;;;3.13;1.80;;;8.60;99.90;;;;;;5077160;28;20200;-77
2021/01/21 11:18:44;;;;;;;10.27;2.10;;;8.60;99.90;;;;;;5088072;28;20198;-77
2021/01/21 11:21:10;;;;;;;4.05;2.05;;;8.60;99.90;;;;;;5082544;28;20229;-77
2021/01/21 11:23:37;;;;;;;4.30;1.95;;;8.60;99.90;;;;;;5078159;28;20684;-77
2021/01/21 11:26:04;;;;;;;2.78;1.60;;;8.60;99.90;;;;;;5078774;28;20600;-77
2021/01/21 11:28:30;;;;;;;10.35;2.25;;;8.60;99.90;;;;;;5078262;28;20201;-77
2021/01/21 11:30:56;;;;;;;2.83;1.77;;;8.60;99.90;;;;;;5084413;28;20202;-77
2021/01/21 11:33:22;;;;;;;8.93;2.25;;;8.60;99.90;;;;;;5081962;28;20243;-78
2021/01/21 11:35:50;;;;;;;3.30;1.75;;;8.60;99.90;;;;;;5079090;28;20204;-77
2021/01/21 11:38:16;;;;;;;7.32;2.60;;;8.60;99.90;;;;;;5079482;28;20196;-77
2021/01/21 11:40:44;;;;;;;1.60;1.50;;;8.60;99.90;;;;;;5080796;28;20253;-78
2021/01/21 11:43:10;;;;;;;2.47;1.75;;;8.60;99.90;;;;;;5075842;28;20198;-77
2021/01/21 11:45:37;;;;;;;3.75;1.92;;;8.60;99.90;;;;;;5079658;28;20643;-78
2021/01/21 11:48:04;;;;;;;5.43;1.65;;;8.60;99.90;;;;;;5081072;28;20206;-77
2021/01/21 11:50:31;;;;;;;5.78;2.78;;;8.60;99.90;;;;;;5085919;28;20534;-78
2021/01/21 11:52:57;;;;;;;4.43;1.65;;;8.70;99.90;;;;;;5085605;28;20202;-77
2021/01/21 11:55:25;;;;;;;4.25;1.70;;;8.70;99.90;;;;;;5079472;28;20282;-77
2021/01/21 11:57:52;;;;;;;2.47;1.75;;;8.70;99.90;;;;;;5085386;28;20213;-78
2021/01/21 12:00:19;;;;;;;2.22;2.03;;;8.70;99.90;;;;;;5079346;28;20704;-78
2021/01/21 12:02:46;;;;;;;2.20;1.60;;;8.80;99.90;;;;;;5079979;28;20198;-78
2021/01/21 12:05:13;;;;;;;2.60;1.50;;;8.70;99.90;;;;;;5085273;28;20211;-78
2021/01/21 12:07:39;;;;;;;4.35;2.28;;;8.70;99.90;;;;;;5088851;28;20240;-78
2021/01/21 12:10:06;;;;;;;5.47;2.60;;;8.80;99.90;;;;;;5088061;28;20197;-78
2021/01/21 12:12:33;;;;;;;3.65;1.83;;;8.80;99.90;;;;;;5082832;28;20681;-78
2021/01/21 12:15:00;;;;;;;4.25;2.70;;;8.80;99.90;;;;;;5084554;28;20210;-78
2021/01/21 12:17:26;;;;;;;3.95;1.58;;;8.80;99.90;;;;;;5084949;28;20243;-77
2021/01/21 12:19:52;;;;;;;3.15;1.70;;;8.80;99.90;;;;;;5083783;28;20272;-77
2021/01/21 12:22:19;;;;;;;2.33;1.60;;;8.80;99.90;;;;;;5085342;28;20209;-77
2021/01/21 12:24:45;;;;;;;3.97;1.80;;;8.80;99.90;;;;;;5082551;28;20207;-76
2021/01/21 12:27:11;;;;;;;1.73;1.40;;;8.80;99.90;;;;;;5082401;28;20203;-77
2021/01/21 12:29:38;;;;;;;4.57;1.80;;;8.80;99.90;;;;;;5082695;28;20210;-77
2021/01/21 12:32:05;;;;;;;3.45;1.85;;;8.90;99.90;;;;;;5081675;28;20289;-78
2021/01/21 12:34:31;;;;;;;3.25;2.10;;;8.90;99.90;;;;;;5080045;28;20740;-78
2021/01/21 12:36:58;;;;;;;3.00;1.77;;;8.90;99.90;;;;;;5077909;28;20204;-78
2021/01/21 12:39:24;;;;;;;3.72;1.77;;;8.90;99.90;;;;;;5086417;28;20210;-78
2021/01/21 12:41:50;;;;;;;2.80;2.13;;;8.90;99.90;;;;;;5079628;28;20223;-77
2021/01/21 12:44:18;;;;;;;4.18;1.80;;;8.90;99.90;;;;;;5079850;28;20194;-77
2021/01/21 12:46:44;;;;;;;3.30;1.63;;;8.90;99.90;;;;;;5081771;28;20210;-79
2021/01/21 12:49:11;;;;;;;4.45;1.95;;;8.90;99.90;;;;;;5081319;28;20551;-79
2021/01/21 12:51:38;;;;;;;2.45;1.98;;;9.00;99.90;;;;;;5084388;28;20230;-78
2021/01/21 12:54:05;;;;;;;4.15;1.75;;;9.00;99.90;;;;;;5074629;28;20191;-78
2021/01/21 12:56:31;;;;;;;6.82;1.70;;;9.00;99.90;;;;;;5079576;28;20285;-78
2021/01/21 12:58:58;;;;;;;8.48;2.30;;;9.00;99.90;;;;;;5078061;28;20614;-79
2021/01/21 13:01:24;;;;;;;6.00;1.73;;;9.00;99.90;;;;;;5081678;28;20235;-78